createdAt,value
2018-12-23T00:00:38.904Z,17.60
2018-12-23T00:03:07.817Z,17.60
2018-12-23T00:05:36.877Z,17.60
2018-12-23T00:08:05.232Z,17.60
2018-12-23T00:10:33.610Z,17.60
2018-12-23T00:13:01.960Z,17.60
2018-12-23T00:15:30.333Z,17.60
2018-12-23T00:17:59.865Z,17.60
2018-12-23T00:20:28.209Z,17.60
2018-12-23T00:22:57.461Z,17.60
2018-12-23T00:25:26.015Z,17.60
2018-12-23T00:27:54.360Z,17.60
2018-12-23T00:30:22.737Z,17.50
2018-12-23T00:32:51.801Z,17.50
2018-12-23T00:35:20.735Z,17.50
2018-12-23T00:37:49.441Z,17.50
2018-12-23T00:40:17.799Z,17.50
2018-12-23T00:42:47.037Z,17.50
2018-12-23T00:45:16.229Z,17.50
2018-12-23T00:47:44.613Z,17.50
2018-12-23T00:50:12.958Z,17.50
2018-12-23T00:52:41.648Z,17.50
2018-12-23T00:55:10.001Z,17.50
2018-12-23T00:57:38.367Z,17.40
2018-12-23T01:00:08.186Z,17.40
2018-12-23T01:02:37.471Z,17.40
2018-12-23T01:05:06.362Z,17.40
2018-12-23T01:07:34.729Z,17.30
2018-12-23T01:10:03.709Z,17.30
2018-12-23T01:12:32.111Z,17.30
2018-12-23T01:15:01.535Z,17.30
2018-12-23T01:17:29.892Z,17.30
2018-12-23T01:19:58.269Z,17.30
2018-12-23T01:22:27.563Z,17.30
2018-12-23T01:24:55.925Z,17.30
2018-12-23T01:27:24.270Z,17.30
2018-12-23T01:29:52.689Z,17.30
2018-12-23T01:32:21.041Z,17.30
2018-12-23T01:34:49.474Z,17.20
2018-12-23T01:37:17.848Z,17.20
2018-12-23T01:39:46.213Z,17.20
2018-12-23T01:42:15.197Z,17.20
2018-12-23T01:44:44.414Z,17.20
2018-12-23T01:47:12.761Z,17.20
2018-12-23T01:49:41.110Z,17.20
2018-12-23T01:52:10.656Z,17.20
2018-12-23T01:54:39.013Z,17.10
2018-12-23T01:57:07.362Z,17.10
2018-12-23T01:59:36.711Z,17.10
2018-12-23T02:02:05.078Z,17.10
2018-12-23T02:04:33.418Z,17.10
2018-12-23T02:07:01.820Z,17.10
2018-12-23T02:09:30.187Z,17.10
2018-12-23T02:11:59.702Z,17.10
2018-12-23T02:14:28.062Z,17.10
2018-12-23T02:16:56.421Z,17.10
2018-12-23T02:19:24.826Z,17.10
2018-12-23T02:21:53.161Z,17.10
2018-12-23T02:24:22.401Z,17.10
2018-12-23T02:26:50.754Z,17.10
2018-12-23T02:29:19.097Z,17.00
2018-12-23T02:31:47.458Z,17.00
2018-12-23T02:34:15.793Z,17.00
2018-12-23T02:36:44.194Z,17.00
2018-12-23T02:39:12.566Z,17.00
2018-12-23T02:41:41.796Z,17.00
2018-12-23T02:44:10.897Z,17.00
2018-12-23T02:46:39.265Z,17.00
2018-12-23T02:49:54.165Z,17.00
2018-12-23T02:52:35.935Z,17.00
2018-12-23T02:55:16.926Z,16.90
2018-12-23T02:57:57.211Z,17.00
2018-12-23T03:00:38.047Z,16.90
2018-12-23T03:03:19.046Z,16.90
2018-12-23T03:06:05.841Z,16.90
2018-12-23T03:08:43.406Z,16.90
2018-12-23T03:11:23.412Z,16.90
2018-12-23T03:14:04.992Z,16.90
2018-12-23T03:16:44.678Z,16.90
2018-12-23T03:19:26.162Z,16.80
2018-12-23T03:22:07.406Z,16.80
2018-12-23T03:24:49.216Z,16.80
2018-12-23T03:27:30.302Z,16.80
2018-12-23T03:30:11.481Z,16.80
2018-12-23T03:32:52.996Z,16.80
2018-12-23T03:35:33.890Z,16.80
2018-12-23T03:38:15.011Z,16.80
2018-12-23T03:40:56.257Z,16.70
2018-12-23T03:43:37.351Z,16.70
2018-12-23T03:46:18.240Z,16.70
2018-12-23T03:48:59.199Z,16.70
2018-12-23T03:51:40.096Z,16.70
2018-12-23T03:54:21.275Z,16.70
2018-12-23T03:57:03.066Z,16.70
2018-12-23T03:59:44.110Z,16.70
2018-12-23T04:02:25.000Z,16.70
2018-12-23T04:05:06.359Z,16.70
2018-12-23T04:07:47.430Z,16.70
2018-12-23T04:10:28.902Z,16.60
2018-12-23T04:13:09.807Z,16.70
2018-12-23T04:15:51.162Z,16.70
2018-12-23T04:18:32.596Z,16.60
2018-12-23T04:21:14.346Z,16.50
2018-12-23T04:23:56.453Z,16.60
2018-12-23T04:26:38.051Z,16.60
2018-12-23T04:29:19.050Z,16.60
2018-12-23T04:32:00.371Z,16.50
2018-12-23T04:34:41.624Z,16.50
2018-12-23T04:37:22.402Z,16.50
2018-12-23T04:40:03.245Z,16.50
2018-12-23T04:42:44.019Z,16.50
2018-12-23T04:45:25.209Z,16.50
2018-12-23T04:48:06.080Z,16.50
2018-12-23T04:50:46.803Z,16.50
2018-12-23T04:53:27.824Z,16.50
2018-12-23T04:56:08.809Z,16.50
2018-12-23T04:58:49.790Z,16.50
2018-12-23T05:01:30.759Z,16.50
2018-12-23T05:04:12.690Z,16.50
2018-12-23T05:06:54.083Z,16.50
2018-12-23T05:09:35.278Z,16.50
2018-12-23T05:12:16.347Z,16.50
2018-12-23T05:14:57.207Z,16.50
2018-12-23T05:17:38.791Z,16.50
2018-12-23T05:20:19.837Z,16.50
2018-12-23T05:23:00.660Z,16.50
2018-12-23T05:25:41.933Z,16.50
2018-12-23T05:28:23.119Z,16.50
2018-12-23T05:31:04.234Z,16.50
2018-12-23T05:33:45.135Z,16.50
2018-12-23T05:36:25.879Z,16.50
2018-12-23T05:39:06.650Z,16.50
2018-12-23T05:41:47.830Z,16.50
2018-12-23T05:44:28.951Z,16.50
2018-12-23T05:47:10.071Z,16.50
2018-12-23T05:49:51.758Z,16.50
2018-12-23T05:52:32.958Z,16.50
2018-12-23T05:55:14.311Z,16.50
2018-12-23T05:57:55.814Z,16.50
2018-12-23T06:00:36.838Z,16.50
2018-12-23T06:03:18.214Z,16.50
2018-12-23T06:05:59.242Z,16.50
2018-12-23T06:08:40.278Z,16.50
2018-12-23T06:11:21.379Z,16.50
2018-12-23T06:14:02.827Z,16.50
2018-12-23T06:16:43.790Z,16.50
2018-12-23T06:19:25.155Z,16.50
2018-12-23T06:22:06.075Z,16.50
2018-12-23T06:24:47.614Z,16.50
2018-12-23T06:30:32.363Z,16.50
2018-12-23T06:33:14.003Z,16.50
2018-12-23T06:35:55.055Z,16.50
2018-12-23T06:38:35.917Z,16.50
2018-12-23T06:41:17.011Z,16.50
2018-12-23T06:43:58.473Z,16.50
2018-12-23T06:46:39.606Z,16.50
2018-12-23T06:49:20.504Z,16.50
2018-12-23T06:52:01.783Z,16.50
2018-12-23T06:54:43.043Z,16.50
2018-12-23T06:57:24.306Z,16.40
2018-12-23T07:00:05.491Z,16.40
2018-12-23T07:02:46.398Z,16.50
2018-12-23T07:05:28.107Z,16.40
2018-12-23T07:08:09.343Z,16.40
2018-12-23T07:10:50.697Z,16.40
2018-12-23T07:13:31.722Z,16.40
2018-12-23T07:16:12.927Z,16.50
2018-12-23T07:18:53.766Z,16.50
2018-12-23T07:21:34.604Z,16.50
2018-12-23T07:24:15.769Z,16.40
2018-12-23T07:26:57.511Z,16.40
2018-12-23T07:29:38.314Z,16.50
2018-12-23T07:34:58.392Z,16.40
2018-12-23T07:37:40.416Z,16.40
2018-12-23T07:40:22.107Z,16.40
2018-12-23T07:43:03.420Z,16.40
2018-12-23T07:45:44.387Z,16.50
2018-12-23T07:48:25.567Z,16.40
2018-12-23T07:51:06.631Z,16.40
2018-12-23T07:53:47.514Z,16.40
2018-12-23T07:56:28.424Z,16.70
2018-12-23T07:59:09.737Z,17.00
2018-12-23T08:01:50.606Z,17.30
2018-12-23T08:04:31.584Z,17.50
2018-12-23T08:07:12.818Z,17.80
2018-12-23T08:09:53.875Z,18.10
2018-12-23T08:12:33.886Z,18.40
2018-12-23T08:15:22.574Z,18.60
2018-12-23T08:18:03.312Z,18.90
2018-12-23T08:20:45.236Z,19.10
2018-12-23T08:23:26.834Z,19.30
2018-12-23T08:26:08.203Z,19.40
2018-12-23T08:28:49.175Z,19.50
2018-12-23T08:31:30.618Z,19.50
2018-12-23T08:34:11.634Z,19.60
2018-12-23T08:36:54.743Z,19.80
2018-12-23T08:39:34.566Z,20.10
2018-12-23T08:42:23.210Z,20.20
2018-12-23T08:45:04.219Z,20.20
2018-12-23T08:47:45.754Z,20.20
2018-12-23T08:50:26.659Z,20.40
2018-12-23T08:53:07.979Z,20.50
2018-12-23T08:55:49.099Z,20.60
2018-12-23T08:58:30.303Z,20.60
2018-12-23T09:01:11.454Z,20.70
2018-12-23T09:03:52.903Z,20.90
2018-12-23T09:06:33.972Z,21.00
2018-12-23T09:09:15.138Z,20.90
2018-12-23T09:11:56.215Z,21.00
2018-12-23T09:14:37.430Z,21.10
2018-12-23T09:20:17.046Z,21.20
2018-12-23T09:22:58.684Z,21.20
2018-12-23T09:25:40.303Z,21.30
2018-12-23T09:28:21.347Z,20.50
2018-12-23T09:31:02.319Z,21.30
2018-12-23T09:33:43.723Z,21.40
2018-12-23T09:36:24.800Z,21.50
2018-12-23T09:39:06.287Z,21.50
2018-12-23T09:41:47.759Z,21.50
2018-12-23T09:44:28.998Z,21.60
2018-12-23T09:47:09.926Z,21.60
2018-12-23T09:49:53.018Z,21.60
2018-12-23T09:55:36.255Z,21.70
2018-12-23T09:58:18.036Z,21.60
2018-12-23T10:00:59.351Z,21.60
2018-12-23T10:03:41.044Z,21.70
2018-12-23T10:06:22.068Z,21.70
2018-12-23T10:09:04.467Z,21.70
2018-12-23T10:11:46.063Z,21.70
2018-12-23T10:14:27.186Z,21.80
2018-12-23T10:17:08.250Z,21.70
2018-12-23T10:19:49.360Z,21.70
2018-12-23T10:22:30.210Z,21.80
2018-12-23T10:25:11.146Z,21.80
2018-12-23T10:27:52.242Z,21.80
2018-12-23T10:30:33.175Z,21.90
2018-12-23T10:33:14.343Z,21.60
2018-12-23T10:35:55.351Z,21.40
2018-12-23T10:38:36.390Z,21.40
2018-12-23T10:41:17.876Z,21.30
2018-12-23T10:43:59.004Z,21.40
2018-12-23T10:46:40.617Z,21.40
2018-12-23T10:49:21.575Z,21.30
2018-12-23T10:52:02.981Z,21.40
2018-12-23T10:54:44.699Z,21.40
2018-12-23T10:57:26.081Z,21.30
2018-12-23T10:59:56.045Z,21.30
2018-12-23T11:02:44.599Z,21.30
2018-12-23T11:05:26.113Z,21.40
2018-12-23T11:08:07.014Z,21.30
2018-12-23T11:10:48.251Z,21.30
2018-12-23T11:13:29.330Z,21.30
2018-12-23T11:16:10.315Z,21.30
2018-12-23T11:18:51.354Z,21.30
2018-12-23T11:21:31.059Z,21.20
2018-12-23T11:24:19.651Z,21.20
2018-12-23T11:27:00.639Z,21.20
2018-12-23T11:29:42.275Z,21.20
2018-12-23T11:32:23.783Z,21.20
2018-12-23T11:35:05.170Z,21.10
2018-12-23T11:37:46.527Z,21.00
2018-12-23T11:40:28.112Z,21.10
2018-12-23T11:43:08.914Z,21.10
2018-12-23T11:45:50.341Z,21.10
2018-12-23T11:48:32.010Z,21.10
2018-12-23T11:51:12.998Z,21.10
2018-12-23T11:53:54.062Z,21.20
2018-12-23T11:56:35.381Z,21.20
2018-12-23T11:59:16.542Z,21.10
2018-12-23T12:01:56.391Z,21.10
2018-12-23T12:04:37.339Z,21.20
2018-12-23T12:07:18.678Z,21.20
2018-12-23T12:09:59.800Z,21.20
2018-12-23T12:12:41.176Z,21.20
2018-12-23T12:15:22.383Z,21.20
2018-12-23T12:18:03.319Z,21.10
2018-12-23T12:20:45.265Z,21.20
2018-12-23T12:23:26.153Z,21.10
2018-12-23T12:26:07.156Z,21.10
2018-12-23T12:28:48.339Z,21.00
2018-12-23T12:31:30.199Z,21.00
2018-12-23T12:34:11.287Z,21.00
2018-12-23T12:36:51.467Z,21.00
2018-12-23T12:39:39.998Z,21.00
2018-12-23T12:42:20.988Z,21.00
2018-12-23T12:45:02.055Z,20.90
2018-12-23T12:47:43.734Z,20.90
2018-12-23T12:50:24.510Z,21.00
2018-12-23T12:53:05.734Z,21.10
2018-12-23T12:55:46.750Z,21.10
2018-12-23T12:58:28.229Z,21.20
2018-12-23T13:01:10.114Z,21.20
2018-12-23T13:03:51.420Z,21.10
2018-12-23T13:06:32.668Z,21.10
2018-12-23T13:12:02.086Z,21.20
2018-12-23T13:14:43.411Z,21.10
2018-12-23T13:17:25.027Z,21.10
2018-12-23T13:20:06.817Z,21.10
2018-12-23T13:22:48.059Z,21.10
2018-12-23T13:25:29.425Z,21.00
2018-12-23T13:28:10.402Z,21.00
2018-12-23T13:30:52.111Z,20.90
2018-12-23T13:33:33.232Z,21.00
2018-12-23T13:36:14.573Z,20.90
2018-12-23T13:38:55.422Z,20.90
2018-12-23T13:41:36.607Z,20.80
2018-12-23T13:44:17.706Z,20.70
2018-12-23T13:46:59.026Z,20.80
2018-12-23T13:49:40.173Z,21.00
2018-12-23T13:52:20.900Z,21.10
2018-12-23T13:55:01.944Z,21.00
2018-12-23T13:57:43.378Z,20.90
2018-12-23T14:00:24.730Z,21.60
2018-12-23T14:03:05.528Z,21.50
2018-12-23T14:05:47.034Z,21.30
2018-12-23T14:08:28.222Z,21.30
2018-12-23T14:11:09.082Z,20.90
2018-12-23T14:13:49.892Z,20.70
2018-12-23T14:16:31.272Z,20.50
2018-12-23T14:19:12.985Z,20.50
2018-12-23T14:21:53.862Z,20.50
2018-12-23T14:24:34.547Z,20.50
2018-12-23T14:27:15.634Z,20.50
2018-12-23T14:29:57.432Z,20.30
2018-12-23T14:32:39.205Z,20.30
2018-12-23T14:35:20.214Z,20.30
2018-12-23T14:41:05.170Z,19.50
2018-12-23T14:43:46.496Z,20.20
2018-12-23T14:46:27.564Z,20.20
2018-12-23T14:49:08.402Z,20.20
2018-12-23T14:51:49.645Z,20.20
2018-12-23T14:54:30.789Z,20.30
2018-12-23T14:57:11.650Z,20.40
2018-12-23T14:59:52.545Z,20.40
2018-12-23T15:02:33.883Z,20.30
2018-12-23T15:05:15.327Z,20.30
2018-12-23T15:07:56.403Z,20.30
2018-12-23T15:10:37.923Z,20.30
2018-12-23T15:13:18.747Z,20.20
2018-12-23T15:15:59.526Z,20.20
2018-12-23T15:18:41.029Z,20.20
2018-12-23T15:21:21.995Z,20.10
2018-12-23T15:24:02.943Z,20.10
2018-12-23T15:26:43.963Z,20.10
2018-12-23T15:29:25.171Z,20.10
2018-12-23T15:32:05.909Z,20.20
2018-12-23T15:34:46.674Z,20.20
2018-12-23T15:37:27.653Z,20.30
2018-12-23T15:40:09.084Z,20.20
2018-12-23T15:42:51.138Z,20.10
2018-12-23T15:45:32.777Z,20.10
2018-12-23T15:48:14.039Z,20.10
2018-12-23T15:50:54.985Z,20.10
2018-12-23T15:53:36.248Z,20.10
2018-12-23T15:56:17.102Z,20.10
2018-12-23T15:58:58.251Z,20.00
2018-12-23T16:01:39.306Z,20.00
2018-12-23T16:04:19.985Z,20.00
2018-12-23T16:07:01.143Z,19.90
2018-12-23T16:09:42.322Z,20.00
2018-12-23T16:12:23.098Z,19.90
2018-12-23T16:17:44.167Z,19.90
2018-12-23T16:20:25.005Z,19.90
2018-12-23T16:23:06.777Z,19.90
2018-12-23T16:25:48.291Z,19.90
2018-12-23T16:28:29.468Z,19.80
2018-12-23T16:31:10.685Z,19.70
2018-12-23T16:33:51.454Z,19.70
2018-12-23T16:36:32.432Z,19.70
2018-12-23T16:39:13.543Z,19.70
2018-12-23T16:41:54.767Z,19.70
2018-12-23T16:44:35.710Z,19.70
2018-12-23T16:47:17.169Z,19.70
2018-12-23T16:49:59.027Z,19.70
2018-12-23T16:52:39.807Z,19.60
2018-12-23T16:55:20.717Z,19.60
2018-12-23T16:58:01.938Z,19.60
2018-12-23T17:00:42.744Z,19.60
2018-12-23T17:03:23.571Z,19.60
2018-12-23T17:06:04.473Z,19.60
2018-12-23T17:08:45.934Z,19.60
2018-12-23T17:11:27.607Z,19.70
2018-12-23T17:14:10.727Z,19.70
2018-12-23T17:16:51.575Z,19.60
2018-12-23T17:19:33.315Z,19.50
2018-12-23T17:22:14.324Z,19.60
2018-12-23T17:24:55.514Z,19.70
2018-12-23T17:27:37.178Z,19.70
2018-12-23T17:30:18.760Z,19.80
2018-12-23T17:32:59.931Z,19.60
2018-12-23T17:35:41.131Z,19.50
2018-12-23T17:38:21.975Z,19.40
2018-12-23T17:41:02.774Z,19.50
2018-12-23T17:43:43.547Z,19.60
2018-12-23T17:46:24.814Z,19.60
2018-12-23T17:49:05.855Z,19.50
2018-12-23T17:51:47.186Z,19.40
2018-12-23T17:54:28.161Z,19.40
2018-12-23T17:57:09.091Z,19.30
2018-12-23T17:59:50.083Z,19.20
2018-12-23T18:02:30.866Z,19.40
2018-12-23T18:05:12.423Z,19.50
2018-12-23T18:07:53.486Z,19.40
2018-12-23T18:10:34.654Z,19.30
2018-12-23T18:13:15.898Z,19.40
2018-12-23T18:15:45.751Z,19.60
2018-12-23T18:18:34.252Z,19.60
2018-12-23T18:21:03.726Z,19.50
2018-12-23T18:26:52.943Z,19.80
2018-12-23T18:29:34.557Z,19.80
2018-12-23T18:32:15.398Z,19.80
2018-12-23T18:34:56.494Z,19.70
2018-12-23T18:37:37.323Z,19.60
2018-12-23T18:40:18.470Z,19.80
2018-12-23T18:42:59.519Z,19.80
2018-12-23T18:45:40.699Z,19.80
2018-12-23T18:48:22.104Z,19.80
2018-12-23T18:51:03.441Z,19.70
2018-12-23T18:53:44.428Z,19.70
2018-12-23T18:56:25.834Z,19.80
2018-12-23T18:59:07.035Z,19.90
2018-12-23T19:01:48.145Z,19.90
2018-12-23T19:04:29.162Z,19.80
2018-12-23T19:07:10.599Z,19.70
2018-12-23T19:12:49.483Z,20.00
2018-12-23T19:15:30.442Z,20.00
2018-12-23T19:18:11.361Z,19.90
2018-12-23T19:20:52.759Z,19.90
2018-12-23T19:23:34.448Z,19.80
2018-12-23T19:26:16.100Z,19.90
2018-12-23T19:28:57.134Z,19.90
2018-12-23T19:31:38.266Z,19.90
2018-12-23T19:34:19.510Z,19.90
2018-12-23T19:37:00.405Z,19.80
2018-12-23T19:39:41.313Z,19.90
2018-12-23T19:42:22.626Z,20.00
2018-12-23T19:45:04.050Z,20.00
2018-12-23T19:47:45.004Z,20.00
2018-12-23T19:50:26.036Z,19.90
2018-12-23T19:53:20.944Z,19.90
2018-12-23T19:56:02.454Z,20.00
2018-12-23T19:58:43.823Z,20.00
2018-12-23T20:01:24.784Z,20.10
2018-12-23T20:04:05.865Z,20.00
2018-12-23T20:06:46.876Z,19.90
2018-12-23T20:09:28.096Z,19.90
2018-12-23T20:12:09.159Z,20.00
2018-12-23T20:14:50.426Z,20.10
2018-12-23T20:17:31.523Z,20.10
2018-12-23T20:22:51.819Z,19.80
2018-12-23T20:25:33.474Z,20.00
2018-12-23T20:28:14.388Z,20.10
2018-12-23T20:30:55.983Z,20.10
2018-12-23T20:33:37.419Z,20.00
2018-12-23T20:36:19.015Z,20.00
2018-12-23T20:39:00.167Z,20.00
2018-12-23T20:41:41.004Z,20.10
2018-12-23T20:44:21.909Z,20.10
2018-12-23T20:47:03.535Z,20.10
2018-12-23T20:49:44.771Z,20.10
2018-12-23T20:52:25.622Z,19.90
2018-12-23T20:55:06.499Z,19.70
2018-12-23T20:57:48.170Z,19.70
2018-12-23T21:03:30.639Z,19.50
2018-12-23T21:06:12.068Z,19.50
2018-12-23T21:14:59.582Z,19.40
2018-12-23T21:17:40.891Z,19.20
2018-12-23T21:20:22.078Z,19.10
2018-12-23T21:25:43.880Z,19.10
2018-12-23T21:28:24.687Z,19.00
2018-12-23T21:31:05.887Z,19.00
2018-12-23T21:33:46.778Z,19.10
2018-12-23T21:36:27.983Z,19.20
2018-12-23T21:39:09.803Z,19.30
2018-12-23T21:41:50.537Z,19.10
2018-12-23T21:44:31.623Z,19.00
2018-12-23T21:47:12.616Z,18.90
2018-12-23T21:49:53.723Z,18.80
2018-12-23T21:52:39.686Z,18.70
2018-12-23T21:55:17.970Z,18.70
2018-12-23T21:57:59.645Z,18.70
2018-12-23T22:00:41.044Z,18.60
2018-12-23T22:03:21.841Z,18.60
2018-12-23T22:06:02.683Z,18.60
2018-12-23T22:08:44.231Z,18.60
2018-12-23T22:11:32.922Z,18.60
2018-12-23T22:14:07.861Z,18.50
2018-12-23T22:16:48.840Z,18.60
2018-12-23T22:19:30.096Z,18.60
2018-12-23T22:22:11.647Z,18.70
2018-12-23T22:24:52.507Z,18.60
2018-12-23T22:30:14.216Z,18.40
2018-12-23T22:32:55.123Z,18.40
2018-12-23T22:35:36.139Z,18.30
2018-12-23T22:38:17.211Z,18.30
2018-12-23T22:40:58.487Z,18.30
2018-12-23T22:43:39.375Z,18.20
2018-12-23T22:46:20.975Z,18.60
2018-12-23T22:49:02.267Z,18.50
2018-12-23T22:51:43.378Z,18.40
2018-12-23T22:54:24.734Z,18.40
2018-12-23T22:57:05.529Z,18.40
2018-12-23T22:59:46.342Z,18.30
2018-12-23T23:02:27.347Z,18.20
2018-12-23T23:05:08.528Z,18.20
2018-12-23T23:07:49.954Z,18.10
2018-12-23T23:10:31.095Z,18.10
2018-12-23T23:13:18.550Z,18.10
2018-12-23T23:15:55.795Z,18.00
2018-12-23T23:18:36.734Z,18.10
2018-12-23T23:21:17.488Z,18.10
2018-12-23T23:23:58.485Z,18.20
2018-12-23T23:26:39.626Z,18.30
2018-12-23T23:29:20.824Z,18.20
2018-12-23T23:32:02.514Z,18.20
2018-12-23T23:34:43.652Z,18.20
2018-12-23T23:37:25.486Z,18.10
2018-12-23T23:40:06.343Z,18.10
2018-12-23T23:42:48.467Z,18.10
2018-12-23T23:45:29.794Z,18.00
2018-12-23T23:48:11.175Z,18.00
2018-12-23T23:50:52.653Z,18.00
2018-12-23T23:56:24.478Z,18.00
2018-12-23T23:59:06.228Z,17.90
